Time;durP1;ratioP1;P1;durP2;ratioP2;P2;SDS_P1;SDS_P2;PMS_P1;PMS_P2;Temp;Humidity;BMP_temperature;BMP_pressure;BME280_temperature;BME280_humidity;BME280_pressure;Samples;Min_cycle;Max_cycle;Signal;HPM_P1;HPM_P2
2021/06/09 00:00:21;;;;;;;2.80;2.60;;;;;;;30.03;38.46;97052.38;4943149;28;20031;-29
2021/06/09 00:03:45;;;;;;;3.00;2.67;;;;;;;-148.56;100.00;61375.16;4944111;28;20018;-35
2021/06/09 00:06:11;;;;;;;2.63;2.40;;;;;;;30.03;38.46;97052.38;4944479;28;20134;-33
2021/06/09 00:08:36;;;;;;;3.42;2.45;;;;;;;29.98;38.49;97058.81;4944330;28;20212;-33
2021/06/09 00:11:02;;;;;;;3.20;2.90;;;;;;;29.99;38.13;97054.38;4950929;28;20800;-32
2021/06/09 00:13:29;;;;;;;2.45;2.15;;;;;;;29.98;38.40;97058.81;4952610;28;20048;-32
2021/06/09 00:15:55;;;;;;;3.00;2.53;;;;;;;29.99;38.40;97055.22;4947080;28;20034;-31
2021/06/09 00:18:23;;;;;;;2.40;2.15;;;;;;;29.99;38.17;97063.16;4952215;28;20081;-33
2021/06/09 00:20:48;;;;;;;4.22;2.97;;;;;;;29.99;38.25;97063.16;4988118;28;20030;-35
2021/06/09 00:23:17;;;;;;;2.60;2.40;;;;;;;29.99;38.18;97059.69;4948930;28;20023;-32
2021/06/09 00:25:48;;;;;;;2.47;2.28;;;;;;;29.97;38.24;97054.50;4945565;28;20030;-35
2021/06/09 00:28:13;;;;;;;4.50;2.25;;;;;;;29.99;38.50;97059.69;4948087;28;20027;-31
2021/06/09 00:30:39;;;;;;;2.63;2.42;;;;;;;29.99;38.30;97059.69;4945866;28;20460;-28
2021/06/09 00:34:03;;;;;;;3.05;2.65;;;;;;;-148.56;100.00;61375.16;4943371;28;20065;-35
2021/06/09 00:36:28;;;;;;;2.60;2.35;;;;;;;29.92;38.43;97053.94;4943759;28;20034;-33
2021/06/09 00:38:54;;;;;;;2.80;2.30;;;;;;;29.94;38.30;97052.03;4946738;28;20027;-33
2021/06/09 00:41:19;;;;;;;2.85;2.45;;;;;;;29.94;38.48;97051.22;4950504;28;20045;-34
2021/06/09 00:43:44;;;;;;;2.75;2.55;;;;;;;29.95;38.48;97055.53;4951858;28;20741;-35
2021/06/09 00:46:10;;;;;;;2.92;2.60;;;;;;;29.95;38.21;97056.38;4946452;28;20034;-29
2021/06/09 00:48:40;;;;;;;2.60;2.20;;;;;;;29.95;38.16;97056.38;4973301;28;20126;-34
2021/06/09 00:51:18;;;;;;;2.67;2.38;;;;;;;29.95;38.42;97056.38;4943545;28;20038;-31
2021/06/09 00:53:56;;;;;;;2.65;2.30;;;;;;;29.94;38.28;97054.69;4951377;28;20193;-35
2021/06/09 00:56:22;;;;;;;2.97;2.35;;;;;;;29.95;38.16;97058.19;4943660;28;20036;-35
2021/06/09 00:58:48;;;;;;;2.28;2.08;;;;;;;29.94;38.27;97059.97;4976765;28;20251;-35
2021/06/09 01:01:17;;;;;;;2.38;2.15;;;;;;;29.94;38.39;97052.03;4947759;28;20073;-35
2021/06/09 01:03:42;;;;;;;2.97;2.28;;;;;;;29.93;38.36;97058.28;4946143;28;20037;-33
2021/06/09 01:06:08;;;;;;;2.20;2.00;;;;;;;29.94;38.13;97053.84;4950432;28;20031;-34
2021/06/09 01:08:36;;;;;;;3.08;2.20;;;;;;;29.94;38.22;97056.50;4946036;28;20743;-33
2021/06/09 01:11:01;;;;;;;2.53;2.30;;;;;;;29.89;38.36;97045.34;4939978;28;20023;-33
2021/06/09 01:13:29;;;;;;;2.28;2.08;;;;;;;29.93;38.22;97055.63;4947021;28;20269;-34
2021/06/09 01:15:54;;;;;;;2.50;2.30;;;;;;;29.92;38.32;97053.94;4942573;28;20031;-36
2021/06/09 01:18:20;;;;;;;2.92;2.63;;;;;;;29.93;38.13;97055.63;4943291;28;20080;-34
2021/06/09 01:20:45;;;;;;;2.33;2.13;;;;;;;29.93;38.02;97053.00;4977959;28;20030;-33
2021/06/09 01:23:11;;;;;;;2.65;2.40;;;;;;;29.93;38.36;97055.63;4947383;28;20597;-31
2021/06/09 01:25:36;;;;;;;3.00;2.60;;;;;;;29.93;38.39;97050.34;4947757;28;20091;-29
2021/06/09 01:28:02;;;;;;;2.22;2.03;;;;;;;29.93;38.22;97054.78;4950466;28;20037;-31
2021/06/09 01:30:28;;;;;;;2.10;1.90;;;;;;;29.92;38.32;97053.94;4944728;28;20054;-31
2021/06/09 01:32:53;;;;;;;2.50;1.98;;;;;;;29.92;38.24;97053.94;4944592;28;20654;-33
2021/06/09 01:35:19;;;;;;;4.10;2.42;;;;;;;29.92;38.25;97059.25;4947899;28;20110;-38
2021/06/09 01:37:45;;;;;;;2.08;1.98;;;;;;;29.91;38.35;97062.84;4945737;28;20356;-35
2021/06/09 01:40:19;;;;;;;2.80;2.22;;;;;;;29.91;38.11;97057.56;4947834;28;20117;-32
2021/06/09 01:42:45;;;;;;;2.88;2.10;;;;;;;29.89;38.43;97051.50;4943026;28;20567;-34
2021/06/09 01:45:12;;;;;;;3.00;2.00;;;;;;;29.91;38.26;97052.25;4936102;28;20481;-35
2021/06/09 01:47:38;;;;;;;2.03;1.92;;;;;;;29.91;38.26;97046.13;4941018;28;20058;-35
2021/06/09 01:50:05;;;;;;;2.03;1.90;;;;;;;29.91;38.34;97049.63;4946244;28;20059;-31
2021/06/09 01:52:30;;;;;;;2.33;2.00;;;;;;;29.91;38.27;97052.25;4940549;28;20033;-34
2021/06/09 01:54:55;;;;;;;3.80;2.95;;;;;;;29.91;38.10;97046.97;4944966;28;20512;-32
2021/06/09 01:57:21;;;;;;;5.13;3.13;;;;;;;29.90;38.23;97042.63;4943920;28;20035;-36
2021/06/09 01:59:46;;;;;;;2.80;2.50;;;;;;;29.90;38.27;97045.25;4949215;28;20051;-32
2021/06/09 02:02:12;;;;;;;2.30;2.10;;;;;;;29.89;38.36;97040.94;4939877;28;20396;-35
2021/06/09 02:04:41;;;;;;;2.38;2.17;;;;;;;29.90;38.42;97045.25;4946653;28;20572;-35
2021/06/09 02:07:06;;;;;;;2.33;1.90;;;;;;;29.90;38.35;97047.06;4979654;28;20066;-35
2021/06/09 02:09:32;;;;;;;2.22;2.03;;;;;;;29.90;38.31;97045.25;4949185;28;20094;-35
2021/06/09 02:12:01;;;;;;;2.35;1.80;;;;;;;29.88;38.15;97036.59;4978636;28;20038;-30
2021/06/09 02:14:26;;;;;;;2.45;1.77;;;;;;;29.89;38.29;97038.28;4947921;28;20431;-31
2021/06/09 02:16:52;;;;;;;2.40;2.20;;;;;;;29.88;38.07;97036.59;4941203;28;20034;-29
2021/06/09 02:19:17;;;;;;;2.00;1.90;;;;;;;29.89;38.37;97038.28;4942890;28;20022;-34
2021/06/09 02:21:43;;;;;;;3.20;1.80;;;;;;;29.85;38.30;97036.81;4945004;28;20333;-29
2021/06/09 02:24:09;;;;;;;2.40;2.20;;;;;;;29.87;38.25;97042.84;4948122;28;20109;-33
2021/06/09 02:26:35;;;;;;;2.40;2.17;;;;;;;29.88;38.23;97041.91;4957509;28;20031;-39
2021/06/09 02:29:01;;;;;;;2.10;1.90;;;;;;;29.87;38.17;97040.22;4945829;28;20247;-34
2021/06/09 02:31:27;;;;;;;2.30;2.10;;;;;;;29.86;38.27;97041.13;4941857;28;20125;-36
2021/06/09 02:33:53;;;;;;;1.83;1.73;;;;;;;29.86;38.14;97046.41;4948426;28;20020;-35
2021/06/09 02:36:18;;;;;;;2.17;1.90;;;;;;;29.85;38.14;97032.38;4980590;28;20034;-34
2021/06/09 02:38:45;;;;;;;3.38;2.00;;;;;;;29.85;38.36;97032.38;4957123;28;20038;-33
2021/06/09 02:41:10;;;;;;;3.10;2.10;;;;;;;29.86;38.09;97027.91;4962819;28;20038;-36
2021/06/09 02:43:35;;;;;;;2.30;2.10;;;;;;;29.85;38.23;97026.22;4947144;28;20987;-34
2021/06/09 02:46:22;;;;;;;2.65;2.00;;;;;;;29.85;38.05;97029.75;4936573;28;20465;-33
2021/06/09 02:48:51;;;;;;;2.40;2.20;;;;;;;29.85;37.95;97037.66;4954561;28;20087;-36
2021/06/09 02:51:20;;;;;;;2.67;1.90;;;;;;;29.86;38.13;97043.78;4942832;28;20038;-36
2021/06/09 02:53:57;;;;;;;2.20;2.00;;;;;;;29.84;38.40;97030.69;4958190;28;20043;-33
2021/06/09 02:56:48;;;;;;;2.20;1.80;;;;;;;29.84;38.38;97025.41;4975277;28;20569;-41
2021/06/09 02:59:26;;;;;;;1.83;1.73;;;;;;;29.83;38.36;97028.97;4978569;28;20435;-35
2021/06/09 03:02:13;;;;;;;2.00;1.90;;;;;;;29.83;37.95;97028.16;4979026;28;20054;-36
2021/06/09 03:04:47;;;;;;;2.25;1.92;;;;;;;29.83;38.19;97030.78;4948958;28;20038;-38
2021/06/09 03:07:12;;;;;;;2.70;1.92;;;;;;;29.83;38.19;97028.16;4950287;28;20046;-35
2021/06/09 03:09:48;;;;;;;1.88;1.77;;;;;;;29.82;38.41;97027.28;4948391;28;20260;-30
2021/06/09 03:12:32;;;;;;;2.08;1.88;;;;;;;29.81;38.19;97022.97;4948035;28;20488;-35
2021/06/09 03:15:11;;;;;;;2.53;2.30;;;;;;;29.82;38.27;97022.00;4972916;28;20037;-33
2021/06/09 03:18:25;;;;;;;2.00;1.90;;;;;;;29.82;38.28;97021.16;4970248;28;20034;-37
2021/06/09 03:21:09;;;;;;;1.83;1.73;;;;;;;29.82;38.17;97027.28;4941769;28;20178;-34
2021/06/09 03:24:01;;;;;;;2.33;2.13;;;;;;;29.81;38.16;97024.75;4941423;28;20546;-35
2021/06/09 03:26:40;;;;;;;1.98;1.77;;;;;;;29.81;38.27;97030.03;4952839;28;20097;-31
2021/06/09 03:29:20;;;;;;;2.15;1.95;;;;;;;29.80;38.20;97033.63;4949697;28;20035;-34
2021/06/09 03:31:48;;;;;;;2.60;1.85;;;;;;;29.80;38.18;97033.63;4965284;28;20070;-35
2021/06/09 03:34:22;;;;;;;2.88;1.80;;;;;;;29.80;38.43;97038.91;4957671;28;20441;-35
2021/06/09 03:36:48;;;;;;;1.80;1.70;;;;;;;29.80;38.32;97033.63;4982319;28;20041;-32
2021/06/09 03:39:14;;;;;;;1.77;1.67;;;;;;;29.79;38.30;97027.47;4981609;28;20038;-32
2021/06/09 03:41:44;;;;;;;2.10;1.90;;;;;;;29.79;38.19;97021.38;4959595;28;20093;-36
2021/06/09 03:44:10;;;;;;;2.63;1.80;;;;;;;29.79;38.38;97024.84;4975594;28;20030;-36
2021/06/09 03:46:36;;;;;;;2.15;1.70;;;;;;;29.79;38.30;97022.19;4951278;28;20065;-33
2021/06/09 03:49:02;;;;;;;2.45;1.88;;;;;;;29.80;38.43;97028.34;4942420;28;20604;-31
2021/06/09 03:51:29;;;;;;;1.85;1.60;;;;;;;29.79;38.14;97021.38;4976291;28;20042;-36
2021/06/09 03:53:55;;;;;;;1.95;1.70;;;;;;;29.79;38.14;97031.94;4967509;28;20653;-32
2021/06/09 03:56:22;;;;;;;2.50;1.80;;;;;;;29.78;38.30;97028.44;4939951;28;20034;-30
2021/06/09 03:58:48;;;;;;;1.88;1.77;;;;;;;29.78;38.35;97032.91;4955037;28;20357;-34
2021/06/09 04:01:13;;;;;;;1.88;1.70;;;;;;;29.80;38.23;97028.34;4951357;28;20762;-30
2021/06/09 04:03:39;;;;;;;2.38;1.60;;;;;;;29.78;38.41;97031.09;4970455;28;20018;-32
2021/06/09 04:06:06;;;;;;;1.48;1.38;;;;;;;29.77;38.32;97033.81;4954287;28;20031;-34
2021/06/09 04:08:31;;;;;;;1.80;1.70;;;;;;;29.78;38.15;97035.53;4951487;28;20414;-32
2021/06/09 04:10:57;;;;;;;1.90;1.70;;;;;;;29.78;38.43;97031.09;4959864;28;20027;-36
2021/06/09 04:13:22;;;;;;;1.52;1.42;;;;;;;29.78;38.43;97030.25;4940159;28;20766;-33
2021/06/09 04:15:51;;;;;;;1.70;1.60;;;;;;;29.78;38.45;97035.53;4981615;28;20031;-36
2021/06/09 04:18:17;;;;;;;4.25;1.58;;;;;;;29.77;38.23;97029.41;4946546;28;20023;-37
2021/06/09 04:20:42;;;;;;;1.85;1.75;;;;;;;29.77;38.39;97041.75;4944803;28;20041;-31
2021/06/09 04:23:09;;;;;;;2.97;1.30;;;;;;;29.78;38.24;97041.66;4948465;28;20023;-35
2021/06/09 04:25:35;;;;;;;1.73;1.35;;;;;;;29.77;38.37;97041.75;4951745;28;20537;-37
2021/06/09 04:28:00;;;;;;;3.97;1.30;;;;;;;29.78;38.30;97046.09;4977310;28;20045;-35
2021/06/09 04:30:25;;;;;;;2.00;1.50;;;;;;;29.76;38.31;97048.84;4953647;28;20038;-39
2021/06/09 04:32:58;;;;;;;1.48;1.38;;;;;;;29.77;38.20;97045.25;4972836;28;20030;-33
2021/06/09 04:35:28;;;;;;;1.63;1.50;;;;;;;29.77;38.36;97044.38;4953913;28;20033;-33
2021/06/09 04:37:54;;;;;;;1.48;1.38;;;;;;;29.76;38.48;97043.56;4942646;28;20034;-32
2021/06/09 04:40:22;;;;;;;2.45;1.50;;;;;;;29.76;38.39;97047.97;4952673;28;20308;-34
2021/06/09 04:42:48;;;;;;;1.50;1.30;;;;;;;29.76;38.37;97045.34;4952666;28;20041;-35
2021/06/09 04:45:14;;;;;;;1.60;1.50;;;;;;;29.75;38.42;97039.19;4944257;28;20039;-31
2021/06/09 04:47:39;;;;;;;1.63;1.50;;;;;;;29.76;38.23;97045.34;4943010;28;20061;-32
2021/06/09 04:50:05;;;;;;;1.40;1.30;;;;;;;29.76;38.24;97042.69;4937195;28;20030;-36
2021/06/09 04:52:30;;;;;;;1.38;1.27;;;;;;;29.76;38.27;97053.25;4942614;28;22368;-35
2021/06/09 04:54:56;;;;;;;1.50;1.40;;;;;;;29.76;38.28;97050.63;4935378;28;20130;-34
2021/06/09 04:57:21;;;;;;;1.45;1.35;;;;;;;29.75;38.17;97044.47;4944407;28;20031;-35
2021/06/09 04:59:47;;;;;;;2.70;1.45;;;;;;;29.76;38.22;97053.25;4948265;28;20030;-29
2021/06/09 05:02:12;;;;;;;1.23;1.13;;;;;;;29.76;38.15;97042.69;4940492;28;20648;-34
2021/06/09 05:04:37;;;;;;;1.40;1.30;;;;;;;29.77;38.36;97047.03;4943428;28;20038;-30
2021/06/09 05:07:03;;;;;;;2.38;1.45;;;;;;;29.76;38.13;97055.91;4943310;28;20027;-36
2021/06/09 05:09:29;;;;;;;1.73;1.60;;;;;;;29.75;38.17;97048.94;4980458;28;20806;-34
2021/06/09 05:12:16;;;;;;;1.25;1.17;;;;;;;29.75;38.32;97043.66;4976536;28;20114;-32
2021/06/09 05:14:48;;;;;;;1.52;1.42;;;;;;;29.75;38.13;97041.00;4939066;28;20101;-34
2021/06/09 05:17:13;;;;;;;1.33;1.13;;;;;;;29.75;38.21;97041.00;4942425;28;20034;-35
2021/06/09 05:19:39;;;;;;;1.58;1.48;;;;;;;29.72;38.30;97048.16;4963862;28;20039;-32
2021/06/09 05:22:08;;;;;;;2.20;1.42;;;;;;;29.75;38.44;97046.28;4979641;28;20732;-33
2021/06/09 05:24:34;;;;;;;1.20;1.10;;;;;;;29.75;38.19;97041.00;4978357;28;20323;-34
2021/06/09 05:26:59;;;;;;;1.50;1.40;;;;;;;29.75;38.19;97041.00;4951106;28;20030;-36
2021/06/09 05:29:25;;;;;;;1.40;1.30;;;;;;;29.75;38.04;97046.28;4952733;28;20042;-32
2021/06/09 05:31:50;;;;;;;1.17;1.10;;;;;;;29.74;38.28;97034.88;4970509;28;20050;-36
2021/06/09 05:34:17;;;;;;;2.05;1.48;;;;;;;29.73;38.44;97033.19;4972194;28;20054;-33
2021/06/09 05:36:42;;;;;;;1.40;1.30;;;;;;;29.75;38.33;97035.72;4976779;28;20047;-34
2021/06/09 05:39:08;;;;;;;1.83;1.30;;;;;;;29.75;38.07;97033.09;4983222;28;20809;-36
2021/06/09 05:41:33;;;;;;;1.27;1.20;;;;;;;29.75;38.43;97033.09;4944615;28;20035;-32
2021/06/09 05:43:58;;;;;;;1.40;1.30;;;;;;;29.71;38.42;97030.63;4973918;28;20666;-34
2021/06/09 05:46:26;;;;;;;1.23;1.13;;;;;;;29.73;38.36;97028.75;4945747;28;20048;-31
2021/06/09 05:48:51;;;;;;;1.25;1.15;;;;;;;29.73;38.33;97036.69;4936562;28;20050;-34
2021/06/09 05:51:17;;;;;;;1.42;1.30;;;;;;;29.72;38.12;97037.59;4938545;28;20030;-34
2021/06/09 05:53:43;;;;;;;1.42;1.33;;;;;;;29.72;38.15;97032.31;4973048;28;20131;-30
2021/06/09 05:56:08;;;;;;;5.90;2.20;;;;;;;29.73;38.53;97034.03;4940457;28;20030;-31
2021/06/09 05:58:34;;;;;;;21.55;2.55;;;;;;;29.74;38.70;97034.88;4928552;28;20583;-36
2021/06/09 06:01:01;;;;;;;3.97;2.03;;;;;;;29.73;38.32;97034.03;4935601;28;20057;-37
2021/06/09 06:03:27;;;;;;;3.25;2.13;;;;;;;29.75;38.33;97035.72;4963768;28;20034;-37
2021/06/09 06:06:01;;;;;;;6.63;2.00;;;;;;;29.75;38.21;97035.72;4937860;28;20043;-32
2021/06/09 06:08:27;;;;;;;5.70;2.55;;;;;;;29.73;38.38;97039.31;4935849;28;20073;-32
2021/06/09 06:10:55;;;;;;;5.40;2.10;;;;;;;29.77;38.01;97033.81;4977095;28;20046;-32
2021/06/09 06:13:24;;;;;;;7.82;2.42;;;;;;;29.76;38.10;97037.41;4943790;28;20038;-33
2021/06/09 06:15:53;;;;;;;4.38;1.90;;;;;;;29.77;38.14;97039.09;4954459;28;20585;-38
2021/06/09 06:18:32;;;;;;;2.38;2.17;;;;;;;29.78;38.11;97051.38;4972672;28;22925;-31
2021/06/09 06:20:57;;;;;;;6.30;1.98;;;;;;;29.78;38.01;97049.56;4936445;28;20150;-36
2021/06/09 06:23:24;;;;;;;4.82;2.45;;;;;;;29.78;37.89;97039.00;4941189;28;20026;-31
2021/06/09 06:25:49;;;;;;;2.40;2.08;;;;;;;29.72;37.95;97032.31;4969432;28;21037;-33
2021/06/09 06:28:15;;;;;;;2.60;2.10;;;;;;;29.79;37.94;97039.88;4951544;28;20051;-33
2021/06/09 06:30:41;;;;;;;5.53;2.00;;;;;;;29.79;37.96;97042.50;4955392;28;20054;-33
2021/06/09 06:33:06;;;;;;;2.25;2.05;;;;;;;29.80;37.90;97050.34;4968464;28;20045;-36
2021/06/09 06:35:31;;;;;;;2.83;2.05;;;;;;;29.81;37.99;97049.38;4932130;28;20039;-33
2021/06/09 06:37:57;;;;;;;7.50;2.50;;;;;;;29.81;37.84;97048.50;4937908;28;20027;-33
2021/06/09 06:40:27;;;;;;;4.35;2.40;;;;;;;29.82;38.07;97052.84;4944979;28;20031;-27
2021/06/09 06:42:53;;;;;;;3.50;2.45;;;;;;;29.83;37.90;97054.56;4953650;28;20204;-33
2021/06/09 06:45:20;;;;;;;2.92;2.50;;;;;;;29.84;37.96;97050.97;4932717;28;20049;-37
2021/06/09 06:47:45;;;;;;;3.20;2.28;;;;;;;29.84;37.73;97046.53;4931676;28;20035;-33
2021/06/09 06:50:14;;;;;;;3.40;2.25;;;;;;;29.86;37.71;97046.41;4932475;28;20076;-32
2021/06/09 06:52:41;;;;;;;3.55;2.20;;;;;;;29.88;37.96;97047.19;4967307;28;20509;-36
2021/06/09 06:55:07;;;;;;;2.45;2.10;;;;;;;29.89;37.80;97048.00;4963995;28;20026;-37
2021/06/09 06:57:34;;;;;;;3.05;2.47;;;;;;;29.89;37.80;97043.56;4978985;28;20459;-39
2021/06/09 07:00:00;;;;;;;2.65;2.30;;;;;;;29.89;37.84;97038.28;4939864;28;20537;-33
2021/06/09 07:02:26;;;;;;;3.40;2.20;;;;;;;29.90;38.09;97039.97;4935685;28;20047;-35
2021/06/09 07:04:51;;;;;;;3.75;2.45;;;;;;;29.91;38.06;97039.06;4964756;28;20043;-36
2021/06/09 07:07:17;;;;;;;4.30;2.10;;;;;;;29.92;37.70;97042.53;4952834;28;20023;-36
2021/06/09 07:09:42;;;;;;;3.53;2.30;;;;;;;29.92;37.87;97048.66;4980183;28;20031;-36
2021/06/09 07:12:08;;;;;;;4.05;2.17;;;;;;;29.94;37.82;97048.56;4959927;28;20413;-34
2021/06/09 07:14:33;;;;;;;2.08;1.88;;;;;;;29.95;38.00;97047.63;4952458;28;20448;-35
2021/06/09 07:16:59;;;;;;;2.92;2.20;;;;;;;29.95;37.92;97043.16;4953338;28;20039;-33
2021/06/09 07:19:24;;;;;;;3.42;2.15;;;;;;;29.96;37.92;97052.81;4960182;28;20035;-33
2021/06/09 07:21:49;;;;;;;2.97;2.40;;;;;;;29.97;38.04;97051.84;4943529;28;20494;-33
2021/06/09 07:24:15;;;;;;;3.20;2.20;;;;;;;29.96;37.93;97052.81;4951761;28;20468;-37
2021/06/09 07:26:45;;;;;;;2.47;2.28;;;;;;;29.99;37.91;97060.50;4996234;28;20802;-37
2021/06/09 07:29:11;;;;;;;2.83;2.20;;;;;;;30.01;37.94;97051.66;4946830;28;20725;-35
2021/06/09 07:31:38;;;;;;;2.75;2.30;;;;;;;30.02;37.91;97048.06;4966814;28;20175;-34
2021/06/09 07:34:04;;;;;;;3.72;2.20;;;;;;;30.02;38.23;97059.47;4957225;28;20066;-35
2021/06/09 07:36:32;;;;;;;3.38;2.20;;;;;;;30.04;38.14;97051.44;4941495;28;20113;-31
2021/06/09 07:39:04;;;;;;;3.15;2.20;;;;;;;30.05;37.90;97059.25;4933538;28;20034;-32
2021/06/09 07:41:29;;;;;;;;;;;;;;;30.06;37.75;97060.13;4953480;28;20101;-36
2021/06/09 07:43:56;;;;;;;7.20;3.33;;;;;;;30.06;37.90;97054.81;4975619;28;19921;-35
2021/06/09 07:46:26;;;;;;;7.55;3.10;;;;;;;30.06;37.78;97054.81;4955925;28;20161;-34
2021/06/09 07:48:52;;;;;;;12.02;3.45;;;;;;;30.02;38.06;97054.19;4944735;28;20051;-38
2021/06/09 07:51:17;;;;;;;8.70;3.90;;;;;;;30.09;38.17;97054.63;4967131;28;20616;-34
2021/06/09 07:53:43;;;;;;;7.15;3.80;;;;;;;30.09;38.05;97060.75;4955130;28;20027;-31
2021/06/09 07:56:12;;;;;;;12.40;4.80;;;;;;;30.08;38.18;97061.69;4938973;28;20206;-34
2021/06/09 07:58:37;;;;;;;12.38;4.53;;;;;;;30.11;38.33;97063.28;4960329;28;22009;-29
2021/06/09 08:01:03;;;;;;;11.80;7.25;;;;;;;30.10;37.90;97067.72;4972053;28;20034;-32
2021/06/09 08:03:32;;;;;;;11.10;7.90;;;;;;;30.09;37.62;97065.19;4951674;28;20252;-34
2021/06/09 08:05:58;;;;;;;10.32;8.18;;;;;;;30.05;37.70;97071.63;4954205;28;20187;-35
2021/06/09 08:08:24;;;;;;;11.70;9.02;;;;;;;29.97;37.62;97072.13;4945716;28;20924;-35
2021/06/09 08:10:50;;;;;;;10.65;8.77;;;;;;;29.90;37.59;97071.69;4941365;28;20025;-32
2021/06/09 08:13:15;;;;;;;9.98;8.40;;;;;;;29.85;37.55;97076.44;4959645;28;20031;-34
2021/06/09 08:15:40;;;;;;;15.65;8.18;;;;;;;29.79;37.49;97071.56;4944867;28;20530;-33
2021/06/09 08:18:07;;;;;;;14.88;8.70;;;;;;;29.73;37.38;97070.16;4954913;28;20041;-36
2021/06/09 08:20:32;;;;;;;12.95;8.60;;;;;;;29.69;37.69;97069.53;4976130;28;20731;-32
2021/06/09 08:22:58;;;;;;;11.73;8.20;;;;;;;29.64;37.66;97066.34;4951661;28;20142;-34
2021/06/09 08:25:24;;;;;;;8.82;7.63;;;;;;;29.63;37.84;97075.19;4952818;28;20157;-30
2021/06/09 08:27:51;;;;;;;15.43;7.15;;;;;;;29.61;38.02;97069.16;4952667;28;20038;-33
2021/06/09 08:30:17;;;;;;;9.32;6.43;;;;;;;29.63;38.04;97079.63;4941347;28;20038;-31
2021/06/09 08:32:42;;;;;;;7.18;6.45;;;;;;;29.63;37.82;97077.81;4971910;28;20026;-32
2021/06/09 08:35:08;;;;;;;6.93;6.30;;;;;;;29.64;37.99;97071.63;4943452;28;20228;-34
2021/06/09 08:37:33;;;;;;;6.90;6.20;;;;;;;29.67;38.09;97075.84;4974087;28;20090;-31
2021/06/09 08:39:59;;;;;;;8.60;6.20;;;;;;;29.68;38.06;97067.81;4942022;28;20035;-32
2021/06/09 08:42:25;;;;;;;7.50;6.35;;;;;;;29.71;37.95;97075.53;4945942;28;20070;-34
2021/06/09 08:44:50;;;;;;;10.07;6.20;;;;;;;29.72;37.92;97077.22;4944229;28;20041;-34
2021/06/09 08:47:16;;;;;;;8.95;6.10;;;;;;;29.76;38.02;97077.03;4934304;28;20033;-36
2021/06/09 08:49:41;;;;;;;7.05;6.30;;;;;;;29.77;37.73;97076.09;4943716;28;20045;-32
2021/06/09 08:52:11;;;;;;;6.97;6.25;;;;;;;29.79;37.71;97074.19;4944791;28;20042;-35
2021/06/09 08:54:37;;;;;;;7.75;5.95;;;;;;;29.80;37.93;97082.03;4940229;28;20022;-35
2021/06/09 08:57:03;;;;;;;8.73;6.40;;;;;;;29.82;37.79;97077.47;4938460;28;20033;-32
2021/06/09 08:59:28;;;;;;;9.05;5.68;;;;;;;29.83;37.75;97083.63;4942053;28;20236;-35
2021/06/09 09:01:54;;;;;;;6.95;6.20;;;;;;;29.84;37.73;97077.38;4936857;28;20054;-35
2021/06/09 09:04:19;;;;;;;7.50;6.05;;;;;;;29.86;37.93;97091.31;4978732;28;20335;-33
2021/06/09 09:06:44;;;;;;;8.13;6.03;;;;;;;29.87;37.86;97079.84;4951992;28;20038;-34
2021/06/09 09:09:10;;;;;;;6.28;5.43;;;;;;;29.88;37.96;97086.81;4954542;28;20019;-34
2021/06/09 09:11:36;;;;;;;12.05;5.80;;;;;;;29.90;38.04;97086.72;4948118;28;20061;-34
2021/06/09 09:14:01;;;;;;;6.72;6.03;;;;;;;29.90;37.74;97079.59;4945013;28;20037;-32
2021/06/09 09:16:26;;;;;;;6.30;5.70;;;;;;;29.91;37.70;97073.41;4951366;28;20744;-33
2021/06/09 09:19:02;;;;;;;6.38;5.88;;;;;;;29.92;38.02;97085.66;4944183;28;20034;-29
2021/06/09 09:21:33;;;;;;;7.40;5.97;;;;;;;29.92;37.94;97077.72;4951924;28;20034;-33
2021/06/09 09:23:58;;;;;;;7.10;5.80;;;;;;;29.94;37.69;97077.63;4947251;28;20135;-30
2021/06/09 09:26:28;;;;;;;6.35;5.60;;;;;;;29.95;37.90;97076.69;4953947;28;20031;-32
2021/06/09 09:29:07;;;;;;;7.07;5.88;;;;;;;29.95;37.89;97076.69;4946161;28;20227;-33
2021/06/09 09:31:49;;;;;;;6.43;5.70;;;;;;;29.95;37.80;97077.50;4947037;28;20538;-34
2021/06/09 09:34:27;;;;;;;6.80;5.47;;;;;;;29.97;37.77;97082.69;4977994;28;20559;-33
2021/06/09 09:37:08;;;;;;;6.97;5.35;;;;;;;29.97;38.06;97091.47;4954327;28;20058;-32
2021/06/09 09:39:35;;;;;;;6.63;5.25;;;;;;;29.99;37.94;97086.09;4982009;28;20053;-34
2021/06/09 09:42:22;;;;;;;7.95;5.40;;;;;;;29.98;38.08;97093.16;4947399;28;20126;-32
2021/06/09 09:44:48;;;;;;;7.07;5.95;;;;;;;30.00;37.95;97093.06;4945690;28;20721;-33
2021/06/09 09:47:15;;;;;;;5.60;5.10;;;;;;;29.99;37.80;97084.28;4941712;28;20392;-35
2021/06/09 09:49:41;;;;;;;5.53;5.03;;;;;;;30.01;38.16;97088.66;4948179;28;20022;-33
2021/06/09 09:52:07;;;;;;;7.60;5.20;;;;;;;30.02;37.86;97085.03;4949769;28;20041;-35
2021/06/09 09:54:36;;;;;;;7.53;5.60;;;;;;;30.02;38.10;97085.03;4939091;28;20509;-32
2021/06/09 09:57:04;;;;;;;6.20;5.07;;;;;;;30.02;37.79;97074.47;4947323;28;20042;-32
2021/06/09 09:59:30;;;;;;;5.93;5.32;;;;;;;30.03;38.08;97078.81;4940160;28;20027;-31
2021/06/09 10:01:56;;;;;;;5.65;5.15;;;;;;;30.03;37.86;97070.88;4936567;28;20806;-35
2021/06/09 10:04:28;;;;;;;5.78;5.20;;;;;;;30.03;38.22;97076.16;4933620;28;20035;-34
2021/06/09 10:06:54;;;;;;;5.28;4.78;;;;;;;30.04;38.09;97067.28;4934541;28;20043;-31
2021/06/09 10:09:29;;;;;;;5.78;5.20;;;;;;;30.04;38.03;97062.84;4933164;28;20134;-34
2021/06/09 10:12:06;;;;;;;7.78;5.13;;;;;;;30.06;37.99;97068.03;4934173;28;20030;-30
2021/06/09 10:14:35;;;;;;;5.20;4.70;;;;;;;30.06;37.91;97060.13;4954728;28;20049;-34
2021/06/09 10:17:08;;;;;;;5.78;4.85;;;;;;;30.06;38.19;97066.22;4943552;28;20028;-32
2021/06/09 10:19:37;;;;;;;5.95;5.07;;;;;;;30.07;38.28;97061.81;4934242;28;20521;-32
2021/06/09 10:22:05;;;;;;;5.03;4.60;;;;;;;30.07;38.06;97056.50;4941106;28;20039;-31
2021/06/09 10:24:41;;;;;;;5.40;4.63;;;;;;;30.08;38.13;97052.91;4938503;28;20027;-31
2021/06/09 10:27:07;;;;;;;5.03;4.50;;;;;;;30.09;38.18;97057.28;4971325;28;20030;-34
2021/06/09 10:29:34;;;;;;;5.20;4.70;;;;;;;30.09;38.18;97054.63;4933217;28;20030;-33
2021/06/09 10:32:04;;;;;;;4.80;4.35;;;;;;;30.09;38.33;97060.75;4947653;28;20547;-31
2021/06/09 10:34:34;;;;;;;6.78;4.65;;;;;;;30.10;38.32;97056.31;4941783;28;20035;-37
2021/06/09 10:37:00;;;;;;;5.60;4.72;;;;;;;30.10;38.33;97061.59;4948644;28;20035;-30
2021/06/09 10:39:28;;;;;;;4.68;4.28;;;;;;;30.11;38.37;97052.72;4940701;28;20046;-36
2021/06/09 10:41:55;;;;;;;6.22;4.60;;;;;;;30.12;38.29;97059.72;4940014;28;20089;-32
2021/06/09 10:44:23;;;;;;;4.68;4.20;;;;;;;30.11;38.36;97058.00;4941077;28;20149;-30
2021/06/09 10:46:50;;;;;;;4.68;4.13;;;;;;;30.12;38.04;97057.09;4938341;28;20058;-33
2021/06/09 10:49:20;;;;;;;6.38;4.30;;;;;;;30.12;38.36;97059.72;4942433;28;20342;-34
2021/06/09 10:51:46;;;;;;;6.45;4.70;;;;;;;30.13;38.50;97053.47;4942755;28;20039;-28
2021/06/09 10:54:14;;;;;;;9.68;4.55;;;;;;;30.14;38.30;97057.84;4942089;28;20324;-38
2021/06/09 10:56:46;;;;;;;4.78;4.30;;;;;;;30.14;38.29;97055.19;4975416;28;20034;-33
2021/06/09 10:59:13;;;;;;;4.35;4.00;;;;;;;30.14;38.34;97052.56;4941133;28;20801;-37
2021/06/09 11:01:39;;;;;;;5.00;4.28;;;;;;;30.11;38.17;97047.44;4973429;28;21079;-33
2021/06/09 11:04:04;;;;;;;4.53;3.90;;;;;;;30.15;38.25;97048.94;4971982;28;20027;-32
2021/06/09 11:06:50;;;;;;;4.47;3.75;;;;;;;30.12;38.38;97036.78;4932870;28;20035;-35
2021/06/09 11:09:23;;;;;;;5.07;4.55;;;;;;;30.17;38.33;97038.28;4970165;28;20039;-30
2021/06/09 11:12:30;;;;;;;5.38;4.20;;;;;;;30.17;38.47;97035.63;4940228;28;20856;-31
2021/06/09 11:14:57;;;;;;;5.13;3.97;;;;;;;30.18;38.17;97038.19;4971672;28;20041;-31
2021/06/09 11:17:47;;;;;;;4.75;4.18;;;;;;;30.17;38.34;97041.75;4942053;28;20050;-31
2021/06/09 11:20:22;;;;;;;6.40;4.15;;;;;;;30.18;38.26;97043.47;4939372;28;20027;-31
2021/06/09 11:22:57;;;;;;;4.25;3.78;;;;;;;30.18;38.49;97043.47;4943205;28;20540;-31
2021/06/09 11:25:38;;;;;;;5.55;4.05;;;;;;;30.18;38.23;97030.25;4941339;28;20043;-36
2021/06/09 11:28:07;;;;;;;4.75;4.15;;;;;;;30.19;38.30;97045.16;4939307;28;20037;-34
2021/06/09 11:30:33;;;;;;;4.53;4.13;;;;;;;30.19;38.20;97037.22;4941702;28;20042;-30
2021/06/09 11:33:00;;;;;;;4.32;3.80;;;;;;;30.19;38.50;97033.72;4970828;28;20127;-30
2021/06/09 11:35:45;;;;;;;4.28;3.80;;;;;;;30.18;38.46;97026.75;4920850;28;20026;-34
2021/06/09 11:38:13;;;;;;;8.60;4.00;;;;;;;30.20;38.54;97030.97;4940497;28;20027;-34
2021/06/09 11:41:05;;;;;;;4.78;4.28;;;;;;;30.20;38.56;97019.56;4947454;28;20041;-33